IE-0046 weather

Clonakilty Airstrip
County Cork, Ireland

Public forecast

Using degrees Celsius for public forecast. Weather courtesy of forecast.io.

METAR (pilot weather report)

Closest report is Cork Airport, 20.4 nm (37.8 km) NE. Retrieved 2019/06/16 17:30 UTC (28 minutes ago):

EICK 161730Z 22013KT 9999 FEW019 BKN026 14/11 Q1008 NOSIG

TAF (pilot weather forecast)

Closest forecast is Cork Airport, 20.4 nm (37.8 km) NE. Retrieved 2019/06/16 12:09 UTC (6 hours ago):

TAF TAF EICK 161100Z 1612/1712 21012KT 9999 FEW012 BKN030 TEMPO 1612/1619 23015G26KT -SHRA BKN012 FEW018CB PROB40 TEMPO 1612/1617 4000 BKN008 SCT018CB